Time;durP1;ratioP1;P1;durP2;ratioP2;P2;SDS_P1;SDS_P2;PMS_P1;PMS_P2;Temp;Humidity;BMP_temperature;BMP_pressure;BME280_temperature;BME280_humidity;BME280_pressure;Samples;Min_cycle;Max_cycle;Signal;HPM_P1;HPM_P2
2023/03/15 00:02:03;;;;;;;7.95;2.00;;;4.10;99.90;;;;;;5031098;28;20095;-65
2023/03/15 00:04:31;;;;;;;7.60;1.90;;;4.00;99.90;;;;;;5030745;28;20387;-65
2023/03/15 00:06:57;;;;;;;3.80;1.80;;;4.00;99.90;;;;;;5031193;28;20071;-65
2023/03/15 00:09:23;;;;;;;4.28;2.10;;;4.00;99.90;;;;;;5069512;28;20040;-65
2023/03/15 00:11:50;;;;;;;3.72;1.75;;;4.10;99.90;;;;;;5069463;28;20401;-65
2023/03/15 00:14:16;;;;;;;4.95;1.80;;;4.00;99.90;;;;;;5070787;28;20161;-65
2023/03/15 00:16:42;;;;;;;6.60;2.17;;;4.10;99.90;;;;;;5070746;28;20032;-65
2023/03/15 00:19:09;;;;;;;2.90;1.80;;;4.00;99.90;;;;;;5069139;28;20032;-65
2023/03/15 00:21:35;;;;;;;7.35;2.75;;;4.00;99.90;;;;;;5070433;28;20619;-65
2023/03/15 00:24:01;;;;;;;4.88;2.15;;;4.10;99.90;;;;;;5070021;28;20041;-65
2023/03/15 00:26:26;;;;;;;4.38;1.65;;;4.10;99.90;;;;;;5070409;28;20091;-65
2023/03/15 00:28:52;;;;;;;10.63;1.80;;;4.00;99.90;;;;;;5070548;28;20123;-65
2023/03/15 00:31:20;;;;;;;3.03;1.55;;;4.10;99.90;;;;;;5069091;28;20041;-65
2023/03/15 00:33:47;;;;;;;2.10;1.40;;;4.00;99.90;;;;;;5069857;28;20397;-65
2023/03/15 00:36:13;;;;;;;5.28;1.73;;;4.00;99.90;;;;;;5070173;28;20049;-65
2023/03/15 00:38:41;;;;;;;4.03;1.52;;;4.00;99.90;;;;;;5069983;28;20622;-65
2023/03/15 00:41:10;;;;;;;3.13;1.60;;;4.00;99.90;;;;;;5051962;28;20044;-65
2023/03/15 00:43:36;;;;;;;5.82;1.58;;;4.00;99.90;;;;;;5070161;28;20451;-65
2023/03/15 00:46:03;;;;;;;7.90;1.52;;;4.00;99.90;;;;;;5069680;28;20048;-65
2023/03/15 00:48:28;;;;;;;3.17;1.63;;;4.00;99.90;;;;;;5070088;28;20155;-65
2023/03/15 00:51:06;;;;;;;3.45;1.48;;;3.90;99.90;;;;;;5051821;28;20136;-65
2023/03/15 00:53:33;;;;;;;3.08;1.33;;;3.90;99.90;;;;;;5069888;28;20457;-65
2023/03/15 00:56:06;;;;;;;1.85;1.30;;;4.00;99.90;;;;;;5069891;28;20105;-65
2023/03/15 00:58:32;;;;;;;2.17;1.45;;;4.00;99.90;;;;;;5069737;28;20105;-65
2023/03/15 01:00:57;;;;;;;5.93;1.88;;;3.90;99.90;;;;;;5068229;28;20048;-65
2023/03/15 01:03:23;;;;;;;1.65;1.55;;;3.90;99.90;;;;;;5069792;28;20047;-65
2023/03/15 01:05:48;;;;;;;4.63;1.60;;;3.90;99.90;;;;;;5069509;28;20115;-65
2023/03/15 01:08:14;;;;;;;1.50;1.40;;;3.90;99.90;;;;;;5069483;28;20048;-65
2023/03/15 01:10:40;;;;;;;1.33;1.20;;;3.90;99.90;;;;;;5069500;28;20089;-65
2023/03/15 01:13:06;;;;;;;2.85;1.70;;;3.90;99.90;;;;;;5069426;28;20041;-65
2023/03/15 01:15:32;;;;;;;10.57;1.60;;;3.90;99.90;;;;;;5069226;28;20051;-65
2023/03/15 01:17:57;;;;;;;5.40;1.58;;;3.90;99.90;;;;;;5068100;28;20391;-65
2023/03/15 01:20:23;;;;;;;2.33;1.20;;;3.90;99.90;;;;;;5069589;28;20044;-65
2023/03/15 01:22:48;;;;;;;3.35;1.42;;;3.90;99.90;;;;;;5069708;28;20044;-65
2023/03/15 01:25:14;;;;;;;4.88;1.38;;;4.00;99.90;;;;;;5069119;28;20052;-65
2023/03/15 01:27:40;;;;;;;2.90;1.73;;;3.90;99.90;;;;;;5068197;28;20621;-65
2023/03/15 01:30:06;;;;;;;4.35;1.23;;;3.90;99.90;;;;;;5069281;28;20100;-65
2023/03/15 01:32:31;;;;;;;7.00;1.80;;;3.90;99.90;;;;;;5069191;28;20041;-65
2023/03/15 01:34:57;;;;;;;2.35;1.55;;;4.00;99.90;;;;;;5068756;28;20493;-65
2023/03/15 01:37:23;;;;;;;2.70;1.23;;;3.90;99.90;;;;;;5069190;28;20531;-65
2023/03/15 01:39:49;;;;;;;4.15;1.55;;;3.90;99.90;;;;;;5069119;28;20045;-65
2023/03/15 01:42:15;;;;;;;4.85;1.50;;;3.90;99.90;;;;;;5068966;28;20404;-65
2023/03/15 01:44:49;;;;;;;4.47;1.55;;;3.90;99.90;;;;;;5068708;28;20044;-65
2023/03/15 01:47:15;;;;;;;3.92;1.20;;;4.00;99.90;;;;;;5069110;28;20481;-65
2023/03/15 01:49:43;;;;;;;5.07;1.48;;;3.90;99.90;;;;;;5068920;28;20123;-64
2023/03/15 01:52:12;;;;;;;4.97;1.63;;;3.90;99.90;;;;;;5067119;28;20040;-65
2023/03/15 01:54:44;;;;;;;2.92;1.58;;;3.90;99.90;;;;;;5068379;28;20047;-65
2023/03/15 01:57:12;;;;;;;7.65;1.88;;;3.90;99.90;;;;;;5068848;28;20045;-65
2023/03/15 01:59:44;;;;;;;2.08;1.25;;;3.90;99.90;;;;;;5066970;28;20505;-65
2023/03/15 02:02:13;;;;;;;8.98;1.55;;;3.90;99.90;;;;;;5068830;28;20072;-65
2023/03/15 02:04:54;;;;;;;5.38;1.60;;;3.90;99.90;;;;;;5068284;28;20515;-65
2023/03/15 02:07:23;;;;;;;3.95;1.83;;;3.80;99.90;;;;;;5068482;28;20040;-65
2023/03/15 02:10:11;;;;;;;4.00;1.45;;;3.80;99.90;;;;;;5067716;28;20400;-65
2023/03/15 02:12:41;;;;;;;5.30;1.20;;;3.80;99.90;;;;;;5068040;28;20048;-65
2023/03/15 02:15:08;;;;;;;2.15;1.40;;;3.80;99.90;;;;;;5066789;28;20078;-65
2023/03/15 02:17:42;;;;;;;4.13;1.10;;;3.80;99.90;;;;;;5067056;28;20044;-65
2023/03/15 02:20:36;;;;;;;3.85;1.40;;;3.80;99.90;;;;;;5068089;28;20032;-65
2023/03/15 02:23:12;;;;;;;2.55;1.40;;;3.70;99.90;;;;;;5068198;28;20044;-65
2023/03/15 02:25:48;;;;;;;8.13;1.45;;;3.70;99.90;;;;;;5067981;28;20481;-65
2023/03/15 02:28:16;;;;;;;9.45;1.60;;;3.80;99.90;;;;;;5068241;28;20045;-65
2023/03/15 02:30:43;;;;;;;3.83;1.50;;;3.80;99.90;;;;;;5067987;28;20043;-65
2023/03/15 02:33:31;;;;;;;3.97;1.98;;;3.70;99.90;;;;;;5067708;28;20568;-65
2023/03/15 02:36:18;;;;;;;2.80;1.25;;;3.70;99.90;;;;;;5068013;28;20040;-65
2023/03/15 02:38:44;;;;;;;3.22;1.30;;;3.70;99.90;;;;;;5067986;28;20071;-65
2023/03/15 02:41:11;;;;;;;2.45;1.63;;;3.70;99.90;;;;;;5067998;28;20079;-65
2023/03/15 02:43:38;;;;;;;3.70;1.55;;;3.60;99.90;;;;;;5067965;28;20044;-66
2023/03/15 02:46:05;;;;;;;5.50;1.42;;;3.70;99.90;;;;;;5067612;28;20090;-65
2023/03/15 02:48:32;;;;;;;6.88;1.40;;;3.70;99.90;;;;;;5068004;28;20063;-65
2023/03/15 02:50:58;;;;;;;3.42;1.35;;;3.70;99.90;;;;;;5067798;28;20076;-65
2023/03/15 02:53:24;;;;;;;3.45;1.10;;;3.70;99.90;;;;;;5067932;28;20460;-65
2023/03/15 02:55:50;;;;;;;4.55;1.42;;;3.70;99.90;;;;;;5067707;28;20102;-65
2023/03/15 02:58:16;;;;;;;5.82;1.33;;;3.70;99.90;;;;;;5068142;28;20080;-65
2023/03/15 03:00:41;;;;;;;4.95;2.03;;;3.70;99.90;;;;;;5068183;28;20036;-65
2023/03/15 03:03:07;;;;;;;4.30;1.77;;;3.70;99.90;;;;;;5067579;28;20048;-65
2023/03/15 03:05:33;;;;;;;6.72;1.50;;;3.60;99.90;;;;;;5066277;28;20051;-65
2023/03/15 03:07:59;;;;;;;2.08;1.13;;;3.60;99.90;;;;;;5067839;28;20044;-65
2023/03/15 03:10:24;;;;;;;5.05;1.67;;;3.60;99.90;;;;;;5067826;28;20413;-65
2023/03/15 03:12:53;;;;;;;2.63;1.20;;;3.60;99.90;;;;;;5067239;28;20103;-65
2023/03/15 03:15:19;;;;;;;7.25;1.63;;;3.60;99.90;;;;;;5067524;28;20044;-65
2023/03/15 03:17:45;;;;;;;3.30;1.30;;;3.60;99.90;;;;;;5067595;28;20043;-65
2023/03/15 03:20:12;;;;;;;4.82;1.40;;;3.60;99.90;;;;;;5067499;28;20112;-65
2023/03/15 03:22:40;;;;;;;5.20;1.38;;;3.50;99.90;;;;;;5069557;28;20048;-65
2023/03/15 03:25:08;;;;;;;7.88;1.60;;;3.50;99.90;;;;;;5071076;28;20144;-65
2023/03/15 03:27:35;;;;;;;7.75;1.40;;;3.50;99.90;;;;;;5071778;28;20054;-65
2023/03/15 03:30:03;;;;;;;4.75;1.88;;;3.50;99.90;;;;;;5071664;28;20051;-65
2023/03/15 03:32:29;;;;;;;13.65;1.70;;;3.50;99.90;;;;;;5071652;28;20071;-65
2023/03/15 03:34:55;;;;;;;2.13;1.15;;;3.40;99.90;;;;;;5071105;28;20538;-65
2023/03/15 03:37:20;;;;;;;6.18;1.38;;;3.40;99.90;;;;;;5071377;28;20127;-65
2023/03/15 03:39:46;;;;;;;2.70;1.42;;;3.40;99.90;;;;;;5071147;28;20036;-65
2023/03/15 03:42:13;;;;;;;5.63;1.30;;;3.40;99.90;;;;;;5071492;28;20076;-65
2023/03/15 03:44:39;;;;;;;5.65;1.90;;;3.30;99.90;;;;;;5071116;28;20087;-65
2023/03/15 03:47:05;;;;;;;6.40;1.90;;;3.30;99.90;;;;;;5071639;28;20420;-65
2023/03/15 03:49:30;;;;;;;4.70;1.80;;;3.20;99.90;;;;;;5071261;28;20070;-65
2023/03/15 03:51:56;;;;;;;3.28;1.30;;;3.20;99.90;;;;;;5070759;28;20032;-65
2023/03/15 03:54:21;;;;;;;8.73;1.83;;;3.20;99.90;;;;;;5070804;28;20065;-65
2023/03/15 03:56:47;;;;;;;6.35;1.70;;;3.20;99.90;;;;;;5070695;28;20040;-65
2023/03/15 03:59:13;;;;;;;4.47;1.30;;;3.10;99.90;;;;;;5070996;28;20047;-65
2023/03/15 04:01:40;;;;;;;5.28;1.45;;;3.10;99.90;;;;;;5070844;28;20071;-65
2023/03/15 04:04:07;;;;;;;7.85;1.55;;;3.00;99.90;;;;;;5070417;28;20045;-65
2023/03/15 04:06:32;;;;;;;3.28;1.67;;;3.00;99.90;;;;;;5070849;28;20446;-65
2023/03/15 04:08:58;;;;;;;6.20;1.40;;;2.90;99.90;;;;;;5070648;28;20036;-65
2023/03/15 04:11:25;;;;;;;4.93;1.40;;;2.90;99.90;;;;;;5070610;28;20040;-65
2023/03/15 04:13:52;;;;;;;3.55;1.67;;;2.90;99.90;;;;;;5070237;28;20142;-65
2023/03/15 04:16:18;;;;;;;4.18;1.25;;;2.90;99.90;;;;;;5070848;28;20087;-65
2023/03/15 04:18:43;;;;;;;2.78;1.38;;;2.80;99.90;;;;;;5070676;28;20080;-65
2023/03/15 04:21:09;;;;;;;4.05;1.33;;;2.80;99.90;;;;;;5066785;28;20033;-65
2023/03/15 04:23:36;;;;;;;6.55;1.42;;;2.80;99.90;;;;;;5050581;28;20049;-65
2023/03/15 04:26:02;;;;;;;8.05;1.55;;;2.70;99.90;;;;;;5050244;28;20041;-65
2023/03/15 04:28:29;;;;;;;3.75;1.42;;;2.80;99.90;;;;;;5050360;28;20746;-65
2023/03/15 04:30:57;;;;;;;4.00;1.38;;;2.80;99.90;;;;;;5050686;28;20401;-65
2023/03/15 04:33:27;;;;;;;6.43;1.33;;;2.80;99.90;;;;;;5048503;28;20036;-65
2023/03/15 04:35:53;;;;;;;4.97;1.70;;;2.80;99.90;;;;;;5048821;28;20045;-65
2023/03/15 04:38:19;;;;;;;7.90;1.40;;;2.80;99.90;;;;;;5050306;28;20503;-65
2023/03/15 04:40:44;;;;;;;6.85;1.63;;;2.70;99.90;;;;;;5050427;28;20036;-65
2023/03/15 04:43:10;;;;;;;8.65;1.60;;;2.80;99.90;;;;;;5050300;28;20076;-65
2023/03/15 04:45:35;;;;;;;4.18;1.35;;;2.90;99.90;;;;;;5049760;28;20041;-65
2023/03/15 04:48:01;;;;;;;5.05;1.42;;;2.90;99.90;;;;;;5049977;28;20077;-65
2023/03/15 04:50:28;;;;;;;6.78;1.63;;;2.90;99.90;;;;;;5049629;28;20049;-65
2023/03/15 04:52:54;;;;;;;7.05;2.92;;;2.90;99.90;;;;;;5049816;28;20048;-65
2023/03/15 04:55:19;;;;;;;7.70;2.42;;;2.90;99.90;;;;;;5049295;28;20045;-65
2023/03/15 04:57:45;;;;;;;10.77;2.53;;;2.90;99.90;;;;;;5049460;28;20075;-65
2023/03/15 05:00:11;;;;;;;6.65;2.60;;;2.90;99.90;;;;;;5049613;28;20036;-65
2023/03/15 05:02:40;;;;;;;3.15;1.70;;;2.90;99.90;;;;;;5049655;28;20049;-65
2023/03/15 05:05:10;;;;;;;8.30;1.90;;;2.90;99.90;;;;;;5049484;28;20048;-65
2023/03/15 05:07:36;;;;;;;5.75;1.88;;;2.90;99.90;;;;;;5049623;28;20613;-65
2023/03/15 05:10:03;;;;;;;2.78;1.52;;;2.90;99.90;;;;;;5049910;28;20048;-65
2023/03/15 05:12:29;;;;;;;2.92;1.60;;;2.80;99.90;;;;;;5049308;28;20086;-65
2023/03/15 05:14:55;;;;;;;5.20;1.63;;;2.80;99.90;;;;;;5049125;28;20036;-65
2023/03/15 05:17:21;;;;;;;6.85;1.52;;;2.80;99.90;;;;;;5049344;28;20044;-65
2023/03/15 05:19:47;;;;;;;4.05;1.60;;;2.80;99.90;;;;;;5049180;28;20117;-65
2023/03/15 05:22:13;;;;;;;6.07;1.85;;;2.80;99.90;;;;;;5049607;28;20074;-65
2023/03/15 05:24:38;;;;;;;6.60;2.13;;;2.80;99.90;;;;;;5049279;28;20056;-65
2023/03/15 05:27:04;;;;;;;3.58;1.42;;;2.70;99.90;;;;;;5049486;28;20041;-65
2023/03/15 05:29:30;;;;;;;5.07;1.60;;;2.80;99.90;;;;;;5049200;28;20049;-65
2023/03/15 05:31:55;;;;;;;4.38;1.52;;;2.80;99.90;;;;;;5049086;28;20078;-65
2023/03/15 05:34:23;;;;;;;3.80;1.30;;;2.80;99.90;;;;;;5048595;28;20128;-65
2023/03/15 05:36:50;;;;;;;5.15;1.70;;;2.70;99.90;;;;;;5049239;28;20044;-65
2023/03/15 05:39:16;;;;;;;4.25;1.27;;;2.70;99.90;;;;;;5049047;28;20086;-65
2023/03/15 05:41:42;;;;;;;6.45;1.70;;;2.80;99.90;;;;;;5047309;28;20040;-65
2023/03/15 05:44:08;;;;;;;4.97;1.52;;;2.80;99.90;;;;;;5046856;28;20452;-65
2023/03/15 05:46:33;;;;;;;3.28;1.58;;;2.80;99.90;;;;;;5047947;28;20043;-65
2023/03/15 05:48:59;;;;;;;3.58;2.13;;;2.80;99.90;;;;;;5048975;28;20509;-65
2023/03/15 05:51:25;;;;;;;10.73;1.95;;;2.80;99.90;;;;;;5049028;28;20059;-65
2023/03/15 05:53:50;;;;;;;3.80;2.03;;;2.80;99.90;;;;;;5048637;28;20041;-65
2023/03/15 05:56:16;;;;;;;8.32;2.20;;;2.80;99.90;;;;;;5048591;28;20047;-65
2023/03/15 05:58:41;;;;;;;8.75;1.70;;;2.90;99.90;;;;;;5048820;28;20037;-65
2023/03/15 06:01:07;;;;;;;7.43;2.22;;;2.90;99.90;;;;;;5048927;28;20095;-65
2023/03/15 06:03:33;;;;;;;10.98;1.77;;;2.90;99.90;;;;;;5048584;28;20057;-65
2023/03/15 06:05:59;;;;;;;5.80;1.70;;;2.90;99.90;;;;;;5048298;28;20123;-65
2023/03/15 06:08:25;;;;;;;6.88;1.70;;;2.90;99.90;;;;;;5048570;28;20500;-65
2023/03/15 06:10:51;;;;;;;6.28;1.65;;;2.90;99.90;;;;;;5048434;28;20045;-65
2023/03/15 06:13:17;;;;;;;8.13;1.73;;;3.00;99.90;;;;;;5048444;28;20126;-65
2023/03/15 06:15:45;;;;;;;7.38;1.95;;;3.00;99.90;;;;;;5048038;28;20041;-65
2023/03/15 06:18:12;;;;;;;5.35;1.42;;;3.00;99.90;;;;;;5048040;28;20045;-64
2023/03/15 06:20:38;;;;;;;7.05;1.85;;;3.00;99.90;;;;;;5048251;28;20091;-65
2023/03/15 06:23:04;;;;;;;10.02;2.13;;;3.00;99.90;;;;;;5048302;28;20045;-64
2023/03/15 06:25:30;;;;;;;6.07;2.00;;;3.10;99.90;;;;;;5047913;28;20043;-65
2023/03/15 06:27:55;;;;;;;6.95;1.40;;;3.00;99.90;;;;;;5048026;28;20433;-65
2023/03/15 06:30:21;;;;;;;7.70;1.85;;;3.00;99.90;;;;;;5047902;28;20045;-67
2023/03/15 06:32:46;;;;;;;3.67;1.38;;;3.00;99.90;;;;;;5048059;28;20484;-64
2023/03/15 06:35:12;;;;;;;3.67;1.80;;;3.00;99.90;;;;;;5044654;28;20088;-64
2023/03/15 06:37:38;;;;;;;3.92;1.60;;;3.10;99.90;;;;;;5048003;28;20128;-65
2023/03/15 06:40:06;;;;;;;2.72;1.65;;;3.00;99.90;;;;;;5048135;28;20037;-67
2023/03/15 06:42:32;;;;;;;8.65;1.85;;;3.10;99.90;;;;;;5046478;28;20770;-66
2023/03/15 06:44:58;;;;;;;5.57;2.03;;;3.10;99.90;;;;;;5047504;28;20044;-64
2023/03/15 06:47:24;;;;;;;8.30;1.40;;;3.20;99.90;;;;;;5047728;28;20045;-65
2023/03/15 06:49:49;;;;;;;6.82;2.10;;;3.20;99.90;;;;;;5046425;28;20044;-65
2023/03/15 06:52:16;;;;;;;5.22;1.45;;;3.10;99.90;;;;;;5047782;28;20079;-65
2023/03/15 06:54:41;;;;;;;2.20;1.70;;;3.10;99.90;;;;;;5047599;28;20083;-65
2023/03/15 06:57:07;;;;;;;4.75;1.40;;;3.10;99.90;;;;;;5047759;28;20045;-65
2023/03/15 06:59:32;;;;;;;7.15;1.40;;;3.10;99.90;;;;;;5047818;28;20120;-65
2023/03/15 07:01:58;;;;;;;5.57;1.50;;;3.20;99.90;;;;;;5047792;28;20127;-64
2023/03/15 07:04:24;;;;;;;5.68;1.67;;;3.30;99.90;;;;;;5047634;28;20051;-65
2023/03/15 07:06:49;;;;;;;7.68;1.67;;;3.20;99.90;;;;;;5048007;28;20045;-65
2023/03/15 07:09:15;;;;;;;3.38;1.50;;;3.30;99.90;;;;;;5047939;28;20068;-65
2023/03/15 07:11:40;;;;;;;11.65;2.63;;;3.30;99.90;;;;;;5047706;28;20097;-65
2023/03/15 07:14:06;;;;;;;6.68;1.45;;;3.40;99.90;;;;;;5047403;28;20037;-65
2023/03/15 07:16:31;;;;;;;5.88;2.00;;;3.40;99.90;;;;;;5046971;28;20560;-66
2023/03/15 07:18:58;;;;;;;5.82;1.35;;;3.40;99.90;;;;;;5047462;28;20040;-65
2023/03/15 07:21:25;;;;;;;7.55;2.60;;;3.50;99.90;;;;;;5047575;28;20037;-66
2023/03/15 07:23:50;;;;;;;4.25;1.60;;;3.60;99.90;;;;;;5047163;28;20068;-65
2023/03/15 07:26:16;;;;;;;3.85;1.73;;;3.60;99.90;;;;;;5047372;28;20393;-65
2023/03/15 07:28:43;;;;;;;8.80;1.85;;;3.60;99.90;;;;;;5047276;28;20045;-65
2023/03/15 07:31:10;;;;;;;6.78;2.00;;;3.60;99.90;;;;;;5047272;28;20044;-65
2023/03/15 07:33:36;;;;;;;6.18;1.90;;;3.70;99.90;;;;;;5051564;28;20036;-65
2023/03/15 07:36:03;;;;;;;6.50;2.17;;;3.80;99.90;;;;;;5067402;28;20124;-65
2023/03/15 07:38:29;;;;;;;7.72;1.58;;;3.80;99.90;;;;;;5067330;28;20113;-65
2023/03/15 07:40:55;;;;;;;8.63;2.90;;;3.80;99.90;;;;;;5067738;28;20048;-65
2023/03/15 07:43:21;;;;;;;8.77;4.10;;;3.80;99.90;;;;;;5067461;28;20098;-65
2023/03/15 07:45:47;;;;;;;7.30;2.92;;;3.90;99.90;;;;;;5065930;28;20071;-65
2023/03/15 07:48:12;;;;;;;17.77;5.78;;;3.90;99.90;;;;;;5066510;28;20048;-64
2023/03/15 07:50:38;;;;;;;7.07;3.17;;;3.90;99.90;;;;;;5067659;28;20047;-67
2023/03/15 07:53:05;;;;;;;8.55;2.60;;;3.90;99.90;;;;;;5067500;28;20037;-66
2023/03/15 07:55:34;;;;;;;4.75;2.30;;;4.00;99.90;;;;;;5067286;28;20076;-65
2023/03/15 07:58:00;;;;;;;8.35;2.40;;;3.90;99.90;;;;;;5067447;28;20040;-65
2023/03/15 08:00:27;;;;;;;10.48;1.58;;;4.00;99.90;;;;;;5067044;28;20036;-66
2023/03/15 08:02:53;;;;;;;6.20;1.70;;;3.90;99.90;;;;;;5067308;28;20151;-66
2023/03/15 08:05:19;;;;;;;2.85;1.80;;;3.90;99.90;;;;;;5066838;28;20147;-65
2023/03/15 08:07:45;;;;;;;7.10;3.30;;;3.90;99.90;;;;;;5036740;28;20049;-66
2023/03/15 08:10:12;;;;;;;5.65;2.03;;;4.00;99.90;;;;;;5040623;28;20041;-65
2023/03/15 08:12:41;;;;;;;13.27;4.00;;;4.00;99.90;;;;;;5038573;28;20402;-65
2023/03/15 08:15:09;;;;;;;6.88;2.97;;;4.00;99.90;;;;;;5039316;28;20141;-65
2023/03/15 08:17:34;;;;;;;8.88;3.58;;;4.10;99.90;;;;;;5040929;28;20033;-65
2023/03/15 08:20:07;;;;;;;12.55;3.28;;;4.20;99.90;;;;;;5047811;28;20066;-65
2023/03/15 08:22:33;;;;;;;10.77;3.47;;;4.20;99.90;;;;;;5070680;28;20102;-65
2023/03/15 08:24:59;;;;;;;9.48;3.47;;;4.30;99.90;;;;;;5070546;28;20076;-65
2023/03/15 08:27:24;;;;;;;7.47;3.33;;;4.40;99.90;;;;;;5070555;28;20047;-66
2023/03/15 08:29:50;;;;;;;4.50;2.60;;;4.40;99.90;;;;;;5070218;28;20492;-66
2023/03/15 08:32:17;;;;;;;8.57;2.20;;;4.40;99.90;;;;;;5070267;28;20573;-66
2023/03/15 08:34:43;;;;;;;7.25;1.90;;;4.50;99.90;;;;;;5070238;28;20044;-66
2023/03/15 08:37:09;;;;;;;7.15;2.67;;;4.50;99.90;;;;;;5070515;28;20040;-66
2023/03/15 08:39:35;;;;;;;4.55;1.90;;;4.50;99.90;;;;;;5070241;28;20047;-66
2023/03/15 08:42:01;;;;;;;8.23;2.58;;;4.50;99.90;;;;;;5070275;28;20408;-66
2023/03/15 08:44:26;;;;;;;19.67;4.72;;;4.60;99.90;;;;;;5069826;28;20412;-66
2023/03/15 08:46:52;;;;;;;11.90;4.25;;;4.60;99.90;;;;;;5070446;28;20162;-65
2023/03/15 08:49:17;;;;;;;5.75;2.13;;;4.60;99.90;;;;;;5070343;28;20068;-65
2023/03/15 08:51:43;;;;;;;6.40;2.17;;;4.70;99.90;;;;;;5069943;28;20035;-65
2023/03/15 08:54:08;;;;;;;5.22;2.10;;;4.70;99.90;;;;;;5070066;28;20098;-65
2023/03/15 08:56:34;;;;;;;9.43;2.00;;;4.80;99.90;;;;;;5070177;28;20044;-66
2023/03/15 08:59:00;;;;;;;5.55;1.98;;;4.80;99.90;;;;;;5070051;28;20032;-66
2023/03/15 09:01:29;;;;;;;8.15;1.85;;;4.90;99.90;;;;;;5070232;28;20118;-66
2023/03/15 09:03:54;;;;;;;3.22;1.70;;;4.90;99.90;;;;;;5069851;28;20047;-66
2023/03/15 09:06:20;;;;;;;12.98;2.80;;;5.00;99.90;;;;;;5069875;28;20109;-66
2023/03/15 09:08:45;;;;;;;11.93;2.30;;;5.00;99.90;;;;;;5069468;28;20059;-66
2023/03/15 09:11:11;;;;;;;11.10;2.17;;;5.10;99.90;;;;;;5061648;28;20091;-70
2023/03/15 09:13:36;;;;;;;8.43;1.60;;;5.20;99.90;;;;;;5049301;28;20489;-70
2023/03/15 09:16:02;;;;;;;10.48;1.95;;;5.20;99.90;;;;;;5047684;28;20734;-67
2023/03/15 09:18:28;;;;;;;10.50;1.88;;;5.30;99.90;;;;;;5049320;28;20041;-66
2023/03/15 09:20:53;;;;;;;2.70;1.55;;;5.30;99.90;;;;;;5047181;28;20124;-66
2023/03/15 09:23:19;;;;;;;8.25;1.52;;;5.20;99.90;;;;;;5049573;28;20148;-66
2023/03/15 09:25:45;;;;;;;5.28;1.27;;;5.00;99.90;;;;;;5049039;28;20044;-66
2023/03/15 09:28:11;;;;;;;5.45;1.40;;;5.10;99.90;;;;;;5049394;28;20542;-66
2023/03/15 09:30:38;;;;;;;5.40;1.17;;;5.10;99.90;;;;;;5049400;28;20065;-66
2023/03/15 09:33:03;;;;;;;4.43;1.58;;;5.10;99.90;;;;;;5049256;28;20032;-66
2023/03/15 09:35:29;;;;;;;4.75;1.58;;;5.20;99.90;;;;;;5049207;28;20090;-66
2023/03/15 09:37:55;;;;;;;10.50;2.08;;;5.30;99.90;;;;;;5049155;28;20037;-66
2023/03/15 09:40:22;;;;;;;5.72;1.63;;;5.30;99.90;;;;;;5048957;28;20044;-65
2023/03/15 09:43:06;;;;;;;6.13;1.10;;;5.30;99.90;;;;;;5048859;28;20052;-66
2023/03/15 09:45:47;;;;;;;13.45;1.70;;;5.20;99.90;;;;;;5048075;28;20483;-66
2023/03/15 09:48:36;;;;;;;10.60;1.58;;;5.30;99.90;;;;;;5046916;28;20045;-67
2023/03/15 09:51:23;;;;;;;6.35;1.75;;;5.50;99.90;;;;;;5046649;28;20049;-66
2023/03/15 09:54:00;;;;;;;5.80;1.40;;;5.50;99.90;;;;;;5046507;28;20117;-66
2023/03/15 09:56:44;;;;;;;4.82;1.40;;;5.50;99.90;;;;;;5048685;28;20048;-66
2023/03/15 09:59:11;;;;;;;3.97;1.23;;;5.50;99.90;;;;;;5042693;28;20044;-66
2023/03/15 10:01:41;;;;;;;6.68;1.35;;;5.50;99.90;;;;;;5047313;28;20037;-66
2023/03/15 10:04:28;;;;;;;8.63;1.60;;;5.60;99.90;;;;;;5048791;28;20043;-66
2023/03/15 10:06:56;;;;;;;5.25;1.52;;;5.50;99.90;;;;;;5041526;28;20045;-66
2023/03/15 10:09:25;;;;;;;6.22;2.15;;;5.60;99.90;;;;;;5048485;28;20041;-66
2023/03/15 10:12:10;;;;;;;3.72;1.40;;;5.60;99.90;;;;;;5040325;28;20045;-66
2023/03/15 10:14:49;;;;;;;5.25;1.25;;;5.60;99.90;;;;;;5048469;28;20041;-66
2023/03/15 10:17:37;;;;;;;6.70;1.33;;;5.70;99.90;;;;;;5046997;28;20037;-66
2023/03/15 10:20:12;;;;;;;2.80;1.30;;;5.70;99.90;;;;;;5040512;28;20041;-66
2023/03/15 10:22:46;;;;;;;3.03;1.50;;;5.80;99.90;;;;;;5041426;28;20045;-66
2023/03/15 10:25:22;;;;;;;5.03;1.30;;;5.70;99.90;;;;;;5040083;28;20041;-67
2023/03/15 10:28:06;;;;;;;6.63;1.40;;;5.80;99.90;;;;;;5044317;28;20040;-67
2023/03/15 10:30:35;;;;;;;7.05;1.58;;;5.70;99.90;;;;;;5043288;28;20437;-67
2023/03/15 10:33:02;;;;;;;9.25;1.65;;;5.80;99.90;;;;;;5039432;28;20045;-67
2023/03/15 10:35:28;;;;;;;2.30;1.25;;;5.70;99.90;;;;;;5040265;28;20038;-67
2023/03/15 10:37:54;;;;;;;3.35;1.60;;;5.80;99.90;;;;;;5039964;28;20043;-67
2023/03/15 10:40:40;;;;;;;4.72;1.30;;;5.90;99.90;;;;;;5036989;28;20041;-67
2023/03/15 10:43:28;;;;;;;5.47;1.27;;;5.90;99.90;;;;;;5036913;28;20037;-67
2023/03/15 10:46:21;;;;;;;3.38;1.30;;;5.90;99.90;;;;;;5037953;28;20069;-67
2023/03/15 10:48:58;;;;;;;4.75;1.45;;;5.90;99.90;;;;;;5037970;28;20049;-67
2023/03/15 10:51:30;;;;;;;5.30;1.40;;;6.00;99.90;;;;;;5039076;28;20064;-67
2023/03/15 10:54:01;;;;;;;2.88;1.30;;;6.00;99.90;;;;;;5037984;28;20037;-67
2023/03/15 10:56:30;;;;;;;4.65;1.85;;;6.10;99.90;;;;;;5036743;28;20037;-67
2023/03/15 10:58:57;;;;;;;5.78;1.75;;;6.10;99.90;;;;;;5037225;28;20051;-67
2023/03/15 11:01:33;;;;;;;1.38;1.20;;;6.00;99.90;;;;;;5038477;28;20159;-67
2023/03/15 11:04:21;;;;;;;3.17;1.35;;;6.00;99.90;;;;;;5038050;28;20041;-67
2023/03/15 11:07:02;;;;;;;2.88;1.10;;;6.00;99.90;;;;;;5037206;28;20038;-67
2023/03/15 11:09:39;;;;;;;3.28;1.50;;;6.00;99.90;;;;;;5040656;28;20513;-67
2023/03/15 11:12:14;;;;;;;8.50;1.60;;;6.10;99.90;;;;;;5047187;28;20517;-67
2023/03/15 11:14:44;;;;;;;3.85;1.50;;;6.20;99.90;;;;;;5040430;28;20452;-66
2023/03/15 11:17:29;;;;;;;2.40;1.30;;;6.20;99.90;;;;;;5039323;28;20125;-67
2023/03/15 11:20:12;;;;;;;10.20;1.70;;;6.30;99.90;;;;;;5051139;28;20452;-67
2023/03/15 11:22:41;;;;;;;5.35;1.40;;;6.30;99.90;;;;;;5047442;28;20048;-67
2023/03/15 11:25:14;;;;;;;4.82;1.35;;;6.40;99.90;;;;;;5047173;28;20559;-67
2023/03/15 11:27:42;;;;;;;2.35;1.30;;;6.50;99.90;;;;;;5047694;28;20040;-67
2023/03/15 11:30:17;;;;;;;1.90;1.20;;;6.50;99.90;;;;;;5047746;28;20055;-67
2023/03/15 11:32:45;;;;;;;8.05;1.67;;;6.50;99.90;;;;;;5047656;28;20041;-67
2023/03/15 11:35:16;;;;;;;5.78;1.58;;;6.60;99.90;;;;;;5047262;28;20041;-67
2023/03/15 11:37:54;;;;;;;2.38;1.40;;;6.70;99.90;;;;;;5047568;28;20139;-66
2023/03/15 11:40:23;;;;;;;2.15;1.08;;;6.60;99.90;;;;;;5047345;28;20517;-67
2023/03/15 11:43:14;;;;;;;3.33;1.38;;;6.50;99.90;;;;;;5048306;28;20182;-67
2023/03/15 11:46:12;;;;;;;6.15;1.40;;;6.50;99.90;;;;;;5051230;28;20071;-67
2023/03/15 11:48:46;;;;;;;5.38;1.33;;;6.50;99.90;;;;;;5051576;28;20130;-67
2023/03/15 11:51:12;;;;;;;2.03;1.42;;;6.60;99.90;;;;;;5050282;28;20489;-66
2023/03/15 11:54:00;;;;;;;3.38;1.25;;;6.70;99.90;;;;;;5055345;28;20055;-66
2023/03/15 11:56:49;;;;;;;4.05;1.50;;;6.70;99.90;;;;;;5044874;28;20094;-66
2023/03/15 11:59:18;;;;;;;2.88;1.10;;;6.70;99.90;;;;;;5030466;28;20509;-67
2023/03/15 12:01:56;;;;;;;2.85;1.30;;;6.80;99.90;;;;;;5045658;28;20116;-67
2023/03/15 12:04:35;;;;;;;5.57;1.58;;;6.90;99.90;;;;;;5045050;28;20809;-66
2023/03/15 12:07:23;;;;;;;3.00;1.10;;;6.90;99.90;;;;;;5046057;28;20120;-66
2023/03/15 12:09:55;;;;;;;3.03;1.30;;;6.90;99.90;;;;;;5044020;28;20033;-67
2023/03/15 12:12:23;;;;;;;6.90;1.48;;;6.90;99.90;;;;;;5050292;28;20045;-67
2023/03/15 12:15:13;;;;;;;13.30;1.70;;;7.00;99.90;;;;;;5050230;28;20078;-67
2023/03/15 12:17:41;;;;;;;5.70;2.05;;;6.90;99.90;;;;;;5050622;28;20120;-67
2023/03/15 12:20:10;;;;;;;6.82;1.95;;;7.00;99.90;;;;;;5050705;28;20454;-67
2023/03/15 12:22:40;;;;;;;5.18;1.55;;;7.00;99.90;;;;;;5049220;28;20051;-67
2023/03/15 12:25:19;;;;;;;4.25;1.30;;;7.00;99.90;;;;;;5049214;28;20041;-67
2023/03/15 12:27:54;;;;;;;5.85;1.20;;;7.10;99.90;;;;;;5047751;28;20144;-68
2023/03/15 12:30:24;;;;;;;1.95;1.33;;;7.20;99.90;;;;;;5049032;28;20120;-68
2023/03/15 12:32:54;;;;;;;3.25;1.00;;;7.30;99.90;;;;;;5048911;28;20048;-66
2023/03/15 12:35:22;;;;;;;3.35;1.60;;;7.30;99.90;;;;;;5048486;28;20612;-67
2023/03/15 12:37:50;;;;;;;5.38;1.40;;;7.40;99.90;;;;;;5048971;28;20095;-67
2023/03/15 12:40:21;;;;;;;8.27;1.63;;;7.40;99.90;;;;;;5048912;28;20452;-65
2023/03/15 12:42:46;;;;;;;3.92;1.50;;;7.50;99.90;;;;;;5049066;28;20052;-66
2023/03/15 12:45:15;;;;;;;5.70;2.03;;;7.40;99.90;;;;;;5049468;28;20049;-66
2023/03/15 12:48:11;;;;;;;5.07;1.50;;;7.40;99.90;;;;;;5049826;28;20511;-66
2023/03/15 12:50:46;;;;;;;9.82;2.22;;;7.40;99.90;;;;;;5049882;28;20052;-66
2023/03/15 12:53:30;;;;;;;6.15;2.40;;;7.40;99.90;;;;;;5050009;28;20471;-66
2023/03/15 12:56:10;;;;;;;5.90;1.52;;;7.50;99.90;;;;;;5049897;28;20098;-66
2023/03/15 12:58:37;;;;;;;5.55;1.33;;;7.50;99.90;;;;;;5050056;28;20057;-67
2023/03/15 13:01:06;;;;;;;4.50;1.45;;;7.50;99.90;;;;;;5040316;28;20086;-68
2023/03/15 13:03:34;;;;;;;3.97;1.48;;;7.60;99.90;;;;;;5030154;28;20053;-68
2023/03/15 13:06:39;;;;;;;2.00;1.00;;;7.60;99.90;;;;;;5029513;28;20051;-66